createdAt,value
2022-09-26T00:00:32.830Z,6.00
2022-09-26T00:03:35.997Z,5.32
2022-09-26T00:06:37.890Z,6.20
2022-09-26T00:09:39.834Z,6.90
2022-09-26T00:12:41.705Z,5.82
2022-09-26T00:15:43.590Z,6.82
2022-09-26T00:18:49.927Z,6.22
2022-09-26T00:21:51.851Z,6.13
2022-09-26T00:24:53.807Z,6.35
2022-09-26T00:27:55.914Z,7.50
2022-09-26T00:34:05.089Z,7.50
2022-09-26T00:37:06.998Z,7.90
2022-09-26T00:40:09.295Z,7.22
2022-09-26T00:43:37.993Z,6.97
2022-09-26T00:46:44.982Z,6.68
2022-09-26T00:49:50.605Z,8.05
2022-09-26T00:53:01.983Z,7.35
2022-09-26T00:56:09.078Z,7.00
2022-09-26T00:59:22.275Z,7.80
2022-09-26T01:02:25.356Z,8.30
2022-09-26T01:05:27.461Z,7.80
2022-09-26T01:08:34.895Z,7.90
2022-09-26T01:11:38.700Z,8.02
2022-09-26T01:14:42.175Z,7.22
2022-09-26T01:17:45.593Z,6.82
2022-09-26T01:21:00.305Z,6.03
2022-09-26T01:24:23.291Z,6.65
2022-09-26T01:27:49.634Z,6.55
2022-09-26T01:30:58.505Z,5.72
2022-09-26T01:34:24.503Z,6.03
2022-09-26T01:37:44.435Z,5.95
2022-09-26T01:41:02.193Z,6.90
2022-09-26T01:44:27.701Z,5.90
2022-09-26T01:47:49.910Z,6.82
2022-09-26T01:51:12.843Z,7.35
2022-09-26T01:54:27.306Z,6.57
2022-09-26T01:57:33.781Z,6.53
2022-09-26T02:00:37.607Z,6.57
2022-09-26T02:03:48.895Z,6.65
2022-09-26T02:07:00.716Z,7.90
2022-09-26T02:10:10.845Z,6.57
2022-09-26T02:13:21.442Z,6.93
2022-09-26T02:16:34.303Z,6.65
2022-09-26T02:19:54.316Z,6.30
2022-09-26T02:23:01.370Z,6.22
2022-09-26T02:26:03.522Z,6.03
2022-09-26T02:29:07.182Z,6.00
2022-09-26T02:32:17.811Z,6.22
2022-09-26T02:35:20.515Z,6.38
2022-09-26T02:38:24.310Z,6.57
2022-09-26T02:41:58.853Z,5.95
2022-09-26T02:45:25.458Z,5.78
2022-09-26T02:48:50.671Z,6.13
2022-09-26T02:52:03.358Z,5.55
2022-09-26T02:55:19.801Z,5.35
2022-09-26T02:58:46.051Z,5.63
2022-09-26T03:01:50.790Z,5.57
2022-09-26T03:05:02.718Z,4.72
2022-09-26T03:08:10.231Z,5.30
2022-09-26T03:11:19.901Z,4.47
2022-09-26T03:14:22.389Z,4.72
2022-09-26T03:17:24.986Z,3.72
2022-09-26T03:23:30.752Z,5.10
2022-09-26T03:26:37.864Z,5.07
2022-09-26T03:29:40.633Z,4.72
2022-09-26T03:32:50.238Z,4.68
2022-09-26T03:35:52.302Z,4.53
2022-09-26T03:38:57.974Z,4.40
2022-09-26T03:42:11.560Z,4.95
2022-09-26T03:45:14.305Z,4.53
2022-09-26T03:48:40.114Z,5.05
2022-09-26T03:51:42.471Z,5.95
2022-09-26T03:54:45.597Z,5.18
2022-09-26T03:57:50.144Z,5.20
2022-09-26T04:01:28.355Z,6.65
2022-09-26T04:04:32.530Z,5.93
2022-09-26T04:07:34.669Z,5.75
2022-09-26T04:10:39.037Z,6.28
2022-09-26T04:13:57.904Z,5.47
2022-09-26T04:17:04.541Z,6.05
2022-09-26T04:20:13.835Z,5.63
2022-09-26T04:23:17.573Z,6.05
2022-09-26T04:26:23.589Z,6.50
2022-09-26T04:29:27.998Z,7.47
2022-09-26T04:32:48.891Z,9.15
2022-09-26T04:35:54.232Z,8.15
2022-09-26T04:38:57.791Z,8.40
2022-09-26T04:41:59.919Z,8.50
2022-09-26T04:45:01.984Z,8.75
2022-09-26T04:48:04.024Z,8.65
2022-09-26T04:51:25.781Z,8.77
2022-09-26T04:54:28.054Z,8.48
2022-09-26T04:57:30.162Z,8.82
2022-09-26T05:00:33.033Z,8.52
2022-09-26T05:03:39.398Z,7.97
2022-09-26T05:06:43.805Z,8.50
2022-09-26T05:09:56.783Z,8.52
2022-09-26T05:13:00.567Z,8.65
2022-09-26T05:16:03.162Z,8.45
2022-09-26T05:19:05.298Z,9.13
2022-09-26T05:22:10.680Z,9.10
2022-09-26T05:25:12.915Z,9.23
2022-09-26T05:28:15.523Z,9.32
2022-09-26T05:31:18.533Z,9.00
2022-09-26T05:34:21.295Z,9.52
2022-09-26T05:37:24.293Z,8.20
2022-09-26T05:40:26.497Z,8.07
2022-09-26T05:43:30.873Z,8.70
2022-09-26T05:46:32.875Z,7.75
2022-09-26T05:49:41.659Z,7.80
2022-09-26T05:52:47.007Z,8.55
2022-09-26T05:55:56.311Z,9.07
2022-09-26T05:59:07.845Z,7.63
2022-09-26T06:02:11.673Z,7.97
2022-09-26T06:05:45.856Z,8.40
2022-09-26T06:08:52.501Z,8.07
2022-09-26T06:12:00.703Z,8.35
2022-09-26T06:15:03.171Z,8.43
2022-09-26T06:18:05.731Z,8.13
2022-09-26T06:24:11.180Z,8.30
2022-09-26T06:27:13.433Z,8.77
2022-09-26T06:30:15.794Z,8.65
2022-09-26T06:33:18.303Z,8.15
2022-09-26T06:36:51.593Z,8.15
2022-09-26T06:39:58.515Z,6.78
2022-09-26T06:43:02.520Z,6.63
2022-09-26T06:46:22.974Z,5.65
2022-09-26T06:49:31.308Z,5.57
2022-09-26T06:52:38.310Z,4.50
2022-09-26T06:55:41.539Z,3.70
2022-09-26T06:58:43.670Z,3.70
2022-09-26T07:01:48.845Z,3.30
2022-09-26T07:05:26.184Z,3.35
2022-09-26T07:08:50.409Z,3.30
2022-09-26T07:12:14.237Z,3.38
2022-09-26T07:15:20.453Z,3.15
2022-09-26T07:18:23.367Z,2.80
2022-09-26T07:21:36.495Z,2.83
2022-09-26T07:27:50.660Z,3.10
2022-09-26T07:30:57.585Z,2.63
2022-09-26T07:34:18.682Z,2.50
2022-09-26T07:37:21.256Z,2.08
2022-09-26T07:40:24.411Z,2.05
2022-09-26T07:43:42.719Z,1.98
2022-09-26T07:46:49.097Z,2.20
2022-09-26T07:49:51.144Z,2.22
2022-09-26T07:53:18.984Z,2.00
2022-09-26T07:56:44.086Z,1.58
2022-09-26T08:00:07.715Z,2.08
2022-09-26T08:03:26.052Z,2.80
2022-09-26T08:06:33.255Z,2.45
2022-09-26T08:09:36.384Z,2.80
2022-09-26T08:12:58.277Z,2.60
2022-09-26T08:16:35.586Z,2.33
2022-09-26T08:19:38.259Z,2.38
2022-09-26T08:22:40.249Z,2.72
2022-09-26T08:25:43.787Z,2.30
2022-09-26T08:28:59.474Z,1.70
2022-09-26T08:32:02.247Z,2.05
2022-09-26T08:35:07.463Z,2.00
2022-09-26T08:38:28.842Z,2.30
2022-09-26T08:42:07.904Z,2.20
2022-09-26T08:45:38.807Z,2.22
2022-09-26T08:49:20.043Z,2.00
2022-09-26T08:52:24.986Z,1.75
2022-09-26T08:55:41.852Z,2.15
2022-09-26T08:58:46.219Z,1.80
2022-09-26T09:01:50.479Z,1.88
2022-09-26T09:05:09.007Z,2.10
2022-09-26T09:08:18.530Z,1.73
2022-09-26T09:11:51.246Z,1.60
2022-09-26T09:15:33.287Z,1.80
2022-09-26T09:18:56.820Z,2.47
2022-09-26T09:22:27.461Z,1.80
2022-09-26T09:25:42.507Z,2.15
2022-09-26T09:29:04.633Z,1.80
2022-09-26T09:32:12.995Z,1.77
2022-09-26T09:35:41.476Z,1.35
2022-09-26T09:39:03.466Z,1.73
2022-09-26T09:42:22.663Z,1.60
2022-09-26T09:45:51.346Z,1.67
2022-09-26T09:48:57.462Z,1.35
2022-09-26T09:52:08.448Z,1.70
2022-09-26T09:55:32.212Z,1.40
2022-09-26T09:58:50.448Z,1.13
2022-09-26T10:02:17.864Z,1.30
2022-09-26T10:05:47.334Z,1.35
2022-09-26T10:09:36.092Z,1.52
2022-09-26T10:12:52.849Z,1.50
2022-09-26T10:16:24.330Z,1.35
2022-09-26T10:19:38.401Z,2.42
2022-09-26T10:22:44.126Z,1.70
2022-09-26T10:25:52.973Z,1.48
2022-09-26T10:28:56.964Z,1.55
2022-09-26T10:32:01.127Z,1.95
2022-09-26T10:35:19.414Z,1.75
2022-09-26T10:38:24.324Z,1.80
2022-09-26T10:41:39.487Z,1.70
2022-09-26T10:44:42.133Z,1.85
2022-09-26T10:47:54.843Z,1.90
2022-09-26T11:03:20.770Z,1.90
2022-09-26T11:06:45.808Z,2.15
2022-09-26T11:10:12.261Z,2.25
2022-09-26T11:13:44.364Z,1.83
2022-09-26T11:16:55.798Z,2.20
2022-09-26T11:20:02.078Z,2.22
2022-09-26T11:23:43.550Z,2.42
2022-09-26T11:27:05.417Z,1.83
2022-09-26T11:30:14.698Z,1.90
2022-09-26T11:33:23.621Z,1.75
2022-09-26T11:36:42.831Z,1.80
2022-09-26T11:40:09.245Z,1.63
2022-09-26T11:43:31.244Z,1.50
2022-09-26T11:47:04.097Z,1.20
2022-09-26T11:50:38.497Z,1.25
2022-09-26T11:54:16.360Z,1.40
2022-09-26T11:58:03.562Z,1.17
2022-09-26T12:01:44.458Z,0.90
2022-09-26T12:05:18.039Z,1.15
2022-09-26T12:08:31.096Z,1.40
2022-09-26T12:12:11.075Z,1.13
2022-09-26T12:15:36.587Z,1.20
2022-09-26T12:18:53.597Z,1.00
2022-09-26T12:22:16.255Z,0.98
2022-09-26T12:25:32.169Z,0.90
2022-09-26T12:28:40.112Z,1.35
2022-09-26T12:32:13.132Z,1.08
2022-09-26T12:35:35.345Z,1.20
2022-09-26T12:38:43.485Z,1.10
2022-09-26T12:42:00.577Z,1.25
2022-09-26T12:45:49.649Z,1.38
2022-09-26T12:49:22.781Z,1.38
2022-09-26T12:52:27.723Z,1.10
2022-09-26T12:55:40.849Z,1.33
2022-09-26T12:58:57.650Z,1.50
2022-09-26T13:02:26.782Z,1.02
2022-09-26T13:05:55.558Z,1.30
2022-09-26T13:09:01.212Z,1.30
2022-09-26T13:12:09.180Z,1.52
2022-09-26T13:15:39.619Z,1.17
2022-09-26T13:18:53.443Z,1.42
2022-09-26T13:22:02.878Z,1.38
2022-09-26T13:25:25.374Z,1.20
2022-09-26T13:29:12.853Z,1.10
2022-09-26T13:32:38.443Z,1.35
2022-09-26T13:35:42.813Z,1.70
2022-09-26T13:39:06.622Z,1.83
2022-09-26T13:42:41.694Z,2.45
2022-09-26T13:46:00.877Z,2.80
2022-09-26T13:49:29.806Z,1.40
2022-09-26T13:52:43.780Z,1.60
2022-09-26T13:55:46.041Z,1.77
2022-09-26T14:02:18.383Z,1.10
2022-09-26T14:05:20.324Z,2.20
2022-09-26T14:08:25.149Z,1.23
2022-09-26T14:11:48.002Z,1.20
2022-09-26T14:15:18.756Z,1.40
2022-09-26T14:18:28.462Z,1.17
2022-09-26T14:21:33.406Z,1.13
2022-09-26T14:24:37.901Z,1.42
2022-09-26T14:27:39.731Z,1.30
2022-09-26T14:31:32.117Z,0.90
2022-09-26T14:35:00.470Z,1.27
2022-09-26T14:38:30.447Z,1.00
2022-09-26T14:41:35.839Z,0.90
2022-09-26T14:44:38.327Z,1.27
2022-09-26T14:48:05.652Z,1.20
2022-09-26T14:54:24.000Z,1.20
2022-09-26T14:57:29.003Z,1.10
2022-09-26T15:00:45.423Z,1.00
2022-09-26T15:03:57.398Z,1.05
2022-09-26T15:07:05.595Z,1.00
2022-09-26T15:10:13.631Z,0.98
2022-09-26T15:13:22.106Z,1.15
2022-09-26T15:16:42.350Z,0.90
2022-09-26T15:19:53.197Z,0.90
2022-09-26T15:22:56.005Z,1.05
2022-09-26T15:26:00.844Z,0.88
2022-09-26T15:29:05.959Z,0.90
2022-09-26T15:32:16.815Z,0.82
2022-09-26T15:35:19.596Z,0.80
2022-09-26T15:38:23.925Z,0.80
2022-09-26T15:41:26.268Z,0.90
2022-09-26T15:47:29.840Z,1.00
2022-09-26T15:50:43.171Z,0.90
2022-09-26T15:53:59.730Z,1.13
2022-09-26T15:57:03.210Z,0.95
2022-09-26T16:03:27.600Z,0.80
2022-09-26T16:06:33.950Z,0.90
2022-09-26T16:09:39.544Z,1.05
2022-09-26T16:12:41.480Z,0.90
2022-09-26T16:15:43.565Z,1.00
2022-09-26T16:18:53.167Z,1.20
2022-09-26T16:21:58.368Z,0.98
2022-09-26T16:25:15.873Z,1.00
2022-09-26T16:28:19.738Z,1.00
2022-09-26T16:31:27.331Z,1.08
2022-09-26T16:34:29.685Z,1.10
2022-09-26T16:37:31.839Z,1.10
2022-09-26T16:40:37.097Z,1.40
2022-09-26T16:43:39.213Z,1.73
2022-09-26T16:46:41.479Z,2.10
2022-09-26T16:49:48.135Z,1.60
2022-09-26T16:52:50.127Z,1.50
2022-09-26T16:55:52.256Z,1.42
2022-09-26T16:58:56.579Z,1.20
2022-09-26T17:02:02.008Z,1.15
2022-09-26T17:05:04.100Z,1.25
2022-09-26T17:08:09.204Z,1.48
2022-09-26T17:11:16.080Z,1.58
2022-09-26T17:14:22.041Z,1.48
2022-09-26T17:17:24.946Z,1.38
2022-09-26T17:20:28.623Z,1.35
2022-09-26T17:23:40.624Z,1.30
2022-09-26T17:26:49.956Z,1.40
2022-09-26T17:32:54.613Z,1.10
2022-09-26T17:39:00.779Z,1.05
2022-09-26T17:42:02.819Z,1.30
2022-09-26T17:45:05.494Z,1.45
2022-09-26T17:48:13.983Z,1.40
2022-09-26T17:54:19.389Z,1.00
2022-09-26T17:57:21.601Z,1.30
2022-09-26T18:00:24.395Z,1.63
2022-09-26T18:03:29.400Z,1.52
2022-09-26T18:06:32.761Z,1.30
2022-09-26T18:09:35.850Z,1.20
2022-09-26T18:12:37.817Z,1.30
2022-09-26T18:15:40.297Z,1.42
2022-09-26T18:18:42.328Z,1.10
2022-09-26T18:21:44.421Z,1.75
2022-09-26T18:24:48.478Z,1.20
2022-09-26T18:27:54.080Z,1.42
2022-09-26T18:30:58.812Z,1.13
2022-09-26T18:34:00.753Z,1.73
2022-09-26T18:37:02.864Z,1.58
2022-09-26T18:43:09.305Z,1.25
2022-09-26T18:46:18.210Z,1.65
2022-09-26T18:49:20.865Z,1.05
2022-09-26T18:52:23.004Z,1.25
2022-09-26T18:55:26.978Z,1.70
2022-09-26T18:58:29.616Z,1.30
2022-09-26T19:01:37.557Z,1.90
2022-09-26T19:04:40.106Z,1.40
2022-09-26T19:07:44.589Z,0.98
2022-09-26T19:10:46.974Z,1.30
2022-09-26T19:16:53.100Z,1.42
2022-09-26T19:19:54.896Z,1.77
2022-09-26T19:22:57.382Z,2.08
2022-09-26T19:29:05.391Z,1.63
2022-09-26T19:32:27.098Z,1.30
2022-09-26T19:35:30.779Z,1.58
2022-09-26T19:38:33.084Z,1.90
2022-09-26T19:41:36.797Z,1.50
2022-09-26T19:44:38.735Z,2.08
2022-09-26T19:47:47.992Z,1.77
2022-09-26T19:50:51.571Z,1.40
2022-09-26T19:53:53.670Z,2.30
2022-09-26T19:56:55.731Z,2.53
2022-09-26T19:59:57.621Z,2.40
2022-09-26T20:02:59.613Z,1.70
2022-09-26T20:06:01.737Z,1.92
2022-09-26T20:09:04.091Z,1.10
2022-09-26T20:12:06.365Z,1.58
2022-09-26T20:15:10.278Z,1.85
2022-09-26T20:18:19.603Z,1.33
2022-09-26T20:21:28.457Z,1.08
2022-09-26T20:24:32.452Z,1.30
2022-09-26T20:27:34.791Z,1.40
2022-09-26T20:30:37.371Z,1.83
2022-09-26T20:33:39.531Z,1.70
2022-09-26T20:36:50.950Z,1.33
2022-09-26T20:39:53.910Z,0.98
2022-09-26T20:43:00.405Z,1.10
2022-09-26T20:46:06.816Z,1.00
2022-09-26T20:49:20.077Z,0.98
2022-09-26T20:52:24.732Z,1.10
2022-09-26T20:55:26.736Z,1.13
2022-09-26T20:58:28.663Z,1.10
2022-09-26T21:01:30.767Z,1.27
2022-09-26T21:04:33.650Z,1.20
2022-09-26T21:07:35.661Z,1.40
2022-09-26T21:10:38.017Z,1.00
2022-09-26T21:13:40.348Z,0.82
2022-09-26T21:16:51.971Z,1.33
2022-09-26T21:19:55.077Z,1.13
2022-09-26T21:23:28.949Z,1.08
2022-09-26T21:26:33.596Z,1.33
2022-09-26T21:29:36.325Z,1.30
2022-09-26T21:32:40.144Z,1.02
2022-09-26T21:35:53.621Z,1.58
2022-09-26T21:38:56.879Z,1.27
2022-09-26T21:42:04.409Z,1.02
2022-09-26T21:45:15.399Z,1.20
2022-09-26T21:48:18.750Z,1.30
2022-09-26T21:51:25.434Z,1.10
2022-09-26T21:54:33.505Z,1.67
2022-09-26T21:57:43.735Z,1.23
2022-09-26T22:00:45.701Z,1.00
2022-09-26T22:03:49.480Z,1.20
2022-09-26T22:06:51.517Z,1.17
2022-09-26T22:09:55.216Z,1.00
2022-09-26T22:12:58.357Z,1.23
2022-09-26T22:16:09.038Z,1.00
2022-09-26T22:19:11.578Z,1.10
2022-09-26T22:22:13.934Z,1.05
2022-09-26T22:25:17.688Z,1.00
2022-09-26T22:28:23.642Z,0.90
2022-09-26T22:31:25.791Z,1.02
2022-09-26T22:34:28.352Z,0.65
2022-09-26T22:37:30.874Z,0.85
2022-09-26T22:43:35.294Z,0.70
2022-09-26T22:46:38.162Z,0.73
2022-09-26T22:49:40.266Z,0.80
2022-09-26T22:52:42.206Z,0.82
2022-09-26T22:55:55.622Z,1.38
2022-09-26T22:58:57.701Z,0.85
2022-09-26T23:01:59.682Z,0.80
2022-09-26T23:05:01.870Z,1.20
2022-09-26T23:08:03.812Z,0.70
2022-09-26T23:11:07.190Z,1.10
2022-09-26T23:14:09.281Z,0.80
2022-09-26T23:17:11.665Z,0.70
2022-09-26T23:23:18.528Z,0.60
2022-09-26T23:26:28.829Z,1.00
2022-09-26T23:29:31.292Z,0.80
2022-09-26T23:35:35.322Z,0.80
2022-09-26T23:38:38.883Z,0.93
2022-09-26T23:41:40.850Z,0.75
2022-09-26T23:44:42.846Z,1.20
2022-09-26T23:47:44.819Z,0.90
2022-09-26T23:50:47.045Z,1.00
2022-09-26T23:53:49.342Z,1.10
2022-09-26T23:56:51.223Z,1.10
2022-09-26T23:59:53.212Z,1.05
